Time;durP1;ratioP1;P1;durP2;ratioP2;P2;SDS_P1;SDS_P2;PMS_P1;PMS_P2;Temp;Humidity;BMP_temperature;BMP_pressure;BME280_temperature;BME280_humidity;BME280_pressure;Samples;Min_cycle;Max_cycle;Signal;HPM_P1;HPM_P2
2024/03/08 00:00:09;;;;;;;11.00;4.68;;;;;;;3.61;52.28;100063.47;10433202;28;20484;-59
2024/03/08 00:05:13;;;;;;;9.70;5.07;;;;;;;3.60;52.44;100060.94;10433868;28;20460;-59
2024/03/08 00:10:16;;;;;;;9.80;4.82;;;;;;;3.50;52.30;100051.72;10435316;28;20528;-58
2024/03/08 00:15:19;;;;;;;11.23;5.20;;;;;;;3.52;52.28;100044.75;10433733;28;20049;-58
2024/03/08 00:20:21;;;;;;;11.77;5.10;;;;;;;3.47;52.25;100038.91;10433033;28;20048;-59
2024/03/08 00:25:23;;;;;;;12.35;5.30;;;;;;;3.35;52.55;100044.41;10465803;28;20056;-58
2024/03/08 00:30:25;;;;;;;8.43;4.97;;;;;;;3.31;52.66;100035.91;10433393;28;20057;-59
2024/03/08 00:35:28;;;;;;;10.20;5.85;;;;;;;3.30;52.77;100035.94;10432267;28;20053;-59
2024/03/08 00:40:30;;;;;;;10.43;5.45;;;;;;;3.26;52.73;100031.75;10431426;28;20438;-58
2024/03/08 00:45:32;;;;;;;11.10;4.88;;;;;;;3.05;53.02;100031.47;10430553;28;20556;-58
2024/03/08 00:50:34;;;;;;;12.52;5.70;;;;;;;3.03;53.29;100028.06;10427065;28;20045;-58
2024/03/08 00:55:36;;;;;;;10.82;5.55;;;;;;;2.95;53.13;100022.28;10432251;28;20041;-60
2024/03/08 01:00:39;;;;;;;10.75;4.88;;;;;;;2.86;53.42;100019.97;10432568;28;20131;-59
2024/03/08 01:05:41;;;;;;;10.32;5.68;;;;;;;2.81;53.65;100019.22;10432574;28;20037;-58
2024/03/08 01:10:43;;;;;;;10.57;5.45;;;;;;;2.79;54.19;100010.66;10432092;28;20052;-59
2024/03/08 01:15:45;;;;;;;11.85;5.40;;;;;;;2.66;54.06;100003.31;10431353;28;20041;-59
2024/03/08 01:20:47;;;;;;;12.38;6.10;;;;;;;2.60;54.42;100001.69;10429410;28;20049;-58
2024/03/08 01:25:56;;;;;;;12.40;5.82;;;;;;;2.65;54.56;100010.19;10429618;28;20497;-58
2024/03/08 01:30:58;;;;;;;11.02;5.70;;;;;;;2.51;54.36;99996.78;10431747;28;20072;-58
2024/03/08 01:36:00;;;;;;;10.57;5.50;;;;;;;2.36;54.49;99988.63;10429006;28;20760;-58
2024/03/08 01:41:04;;;;;;;9.05;5.10;;;;;;;2.12;54.66;99980.59;10426895;28;20048;-59
2024/03/08 01:46:08;;;;;;;9.02;5.18;;;;;;;2.08;54.94;99978.13;10430298;28;20533;-59
2024/03/08 01:51:11;;;;;;;8.45;5.05;;;;;;;2.08;54.88;99980.69;10422680;28;20425;-58
2024/03/08 01:56:14;;;;;;;13.45;6.50;;;;;;;2.15;54.62;99971.94;10427150;28;20075;-58
2024/03/08 02:01:16;;;;;;;12.07;5.32;;;;;;;2.03;54.89;99970.50;10429924;28;20147;-59
2024/03/08 02:06:19;;;;;;;13.50;5.63;;;;;;;1.87;55.12;99958.03;10430526;28;20487;-59
2024/03/08 02:11:21;;;;;;;11.50;5.47;;;;;;;1.98;54.89;99963.75;10425683;28;20127;-58
2024/03/08 02:16:23;;;;;;;9.20;5.40;;;;;;;1.97;55.02;99956.91;10429053;28;20049;-59
2024/03/08 02:21:26;;;;;;;12.88;5.25;;;;;;;1.94;55.10;99944.94;10428524;28;20060;-58
2024/03/08 02:26:28;;;;;;;10.50;5.50;;;;;;;1.98;54.92;99940.53;10422904;28;20041;-58
2024/03/08 02:31:30;;;;;;;10.93;6.03;;;;;;;1.98;54.82;99936.25;10458772;28;20072;-59
2024/03/08 02:36:34;;;;;;;14.48;5.57;;;;;;;1.91;55.08;99933.88;10429020;28;20084;-58
2024/03/08 02:41:37;;;;;;;11.55;5.47;;;;;;;1.88;55.09;99933.91;10420548;28;20505;-59
2024/03/08 02:46:39;;;;;;;11.23;5.38;;;;;;;1.84;55.08;99932.31;10423999;28;20045;-58
2024/03/08 02:51:41;;;;;;;10.15;5.30;;;;;;;1.79;55.40;99923.81;10421903;28;20045;-58
2024/03/08 02:56:43;;;;;;;10.80;5.30;;;;;;;1.73;55.64;99923.97;10426606;28;20428;-58
2024/03/08 03:01:45;;;;;;;10.10;5.55;;;;;;;1.55;56.04;99919.25;10421051;28;20568;-58
2024/03/08 03:06:47;;;;;;;12.18;5.43;;;;;;;1.47;55.95;99916.84;10423182;28;20045;-57
2024/03/08 03:11:49;;;;;;;10.93;5.90;;;;;;;1.41;56.10;99914.44;10428787;28;20142;-59
2024/03/08 03:16:52;;;;;;;11.75;5.68;;;;;;;1.36;56.26;99911.94;10426719;28;20513;-61
2024/03/08 03:21:54;;;;;;;9.90;4.88;;;;;;;1.39;56.06;99905.88;10433719;28;20443;-58
2024/03/08 03:26:57;;;;;;;9.32;4.63;;;;;;;1.40;56.16;99904.16;10436754;28;20037;-58
2024/03/08 03:31:59;;;;;;;9.82;5.10;;;;;;;1.36;56.44;99909.38;10420280;28;20056;-58
2024/03/08 03:37:02;;;;;;;12.55;5.90;;;;;;;1.36;56.34;99901.63;10433448;28;20044;-58
2024/03/08 03:42:04;;;;;;;12.80;5.38;;;;;;;1.35;56.30;99899.97;10434000;28;20053;-59
2024/03/08 03:47:07;;;;;;;8.70;4.90;;;;;;;1.40;56.38;99892.09;10433259;28;20526;-58
2024/03/08 03:52:10;;;;;;;13.65;5.70;;;;;;;1.34;56.47;99898.25;10432323;28;20055;-58
2024/03/08 03:57:12;;;;;;;11.75;5.60;;;;;;;1.34;56.59;99893.09;10434236;28;20052;-57
2024/03/08 04:02:14;;;;;;;11.60;5.90;;;;;;;1.38;56.54;99893.03;10432232;28;20087;-58
2024/03/08 04:07:16;;;;;;;14.25;7.15;;;;;;;1.36;56.58;99881.03;10431313;28;20126;-58
2024/03/08 04:12:19;;;;;;;11.57;5.63;;;;;;;1.28;56.57;99880.38;10433857;28;20107;-59
2024/03/08 04:17:24;;;;;;;11.88;6.03;;;;;;;1.24;56.55;99881.31;10437249;28;20218;-59
2024/03/08 04:22:28;;;;;;;10.60;5.07;;;;;;;1.27;56.87;99876.09;10435088;28;20072;-59
2024/03/08 04:27:30;;;;;;;11.55;6.57;;;;;;;1.17;56.65;99879.78;10434938;28;20077;-59
2024/03/08 04:32:32;;;;;;;12.70;5.35;;;;;;;1.09;56.57;99873.94;10435163;28;20064;-59
2024/03/08 04:37:35;;;;;;;12.60;5.32;;;;;;;1.06;56.58;99876.59;10435702;28;20055;-58
2024/03/08 04:42:39;;;;;;;11.48;5.10;;;;;;;1.06;56.73;99870.56;10431352;28;20106;-59
2024/03/08 04:47:41;;;;;;;10.82;5.18;;;;;;;1.14;56.83;99868.69;10463516;28;20508;-59
2024/03/08 04:52:43;;;;;;;12.57;6.28;;;;;;;1.16;57.05;99865.19;10429786;28;20168;-59
2024/03/08 04:57:46;;;;;;;9.88;5.47;;;;;;;1.18;56.97;99871.16;10462352;28;20122;-59
2024/03/08 05:02:48;;;;;;;10.95;5.90;;;;;;;1.13;56.97;99859.28;10431172;28;20037;-59
2024/03/08 05:07:50;;;;;;;8.82;4.80;;;;;;;1.09;57.27;99852.50;10433261;28;20041;-60
2024/03/08 05:12:52;;;;;;;11.27;5.15;;;;;;;0.98;57.21;99857.88;10432522;28;20639;-59
2024/03/08 05:17:58;;;;;;;10.38;6.00;;;;;;;0.95;57.44;99855.34;10433731;28;20131;-59
2024/03/08 05:23:00;;;;;;;12.95;5.90;;;;;;;0.92;57.13;99863.16;10434461;28;20519;-59
2024/03/08 05:28:04;;;;;;;14.85;5.05;;;;;;;0.79;57.35;99861.72;10432108;28;20045;-59
2024/03/08 05:33:06;;;;;;;12.30;6.03;;;;;;;0.76;57.73;99851.50;10416214;28;20057;-59
2024/03/08 05:38:12;;;;;;;9.73;5.40;;;;;;;0.80;57.52;99852.28;10433327;28;20195;-59
2024/03/08 05:43:17;;;;;;;13.18;6.13;;;;;;;0.74;57.76;99845.53;10433026;28;20130;-59
2024/03/08 05:48:19;;;;;;;10.73;5.85;;;;;;;0.69;57.69;99846.53;10433197;28;20094;-59
2024/03/08 05:53:21;;;;;;;12.88;6.03;;;;;;;0.54;57.92;99840.81;10431716;28;20501;-59
2024/03/08 05:58:23;;;;;;;17.00;5.65;;;;;;;0.54;58.18;99839.97;10432600;28;20052;-59
2024/03/08 06:03:25;;;;;;;11.35;5.90;;;;;;;0.62;57.81;99844.94;10465135;28;20040;-59
2024/03/08 06:08:29;;;;;;;12.50;6.30;;;;;;;0.64;57.82;99835.47;10432296;28;20049;-60
2024/03/08 06:13:33;;;;;;;13.98;6.30;;;;;;;0.67;57.96;99831.09;10432980;28;20064;-59
2024/03/08 06:18:42;;;;;;;11.02;4.97;;;;;;;0.75;57.93;99834.34;10432644;28;20059;-59
2024/03/08 06:23:44;;;;;;;15.70;7.03;;;;;;;0.77;57.60;99824.06;10447451;28;20037;-59
2024/03/08 06:28:46;;;;;;;12.10;6.00;;;;;;;0.93;57.73;99822.81;10431040;28;20052;-59
2024/03/08 06:33:51;;;;;;;12.43;6.45;;;;;;;1.03;57.56;99829.47;10432266;28;20136;-59
2024/03/08 06:38:53;;;;;;;10.65;5.78;;;;;;;1.06;57.76;99826.81;10432662;28;20045;-59
2024/03/08 06:43:57;;;;;;;12.25;5.55;;;;;;;1.23;57.50;99825.53;10429045;28;20045;-59
2024/03/08 06:49:00;;;;;;;13.40;6.05;;;;;;;1.38;57.35;99818.31;10432638;28;20048;-59
2024/03/08 06:54:08;;;;;;;14.98;5.82;;;;;;;1.48;57.17;99814.63;10433499;28;20497;-59
2024/03/08 06:59:11;;;;;;;13.15;6.20;;;;;;;1.60;57.06;99809.19;10439350;28;20412;-59
2024/03/08 07:04:15;;;;;;;12.43;6.30;;;;;;;1.67;57.23;99811.53;10439626;28;20352;-60
2024/03/08 07:09:17;;;;;;;10.77;5.40;;;;;;;1.72;57.09;99811.44;10439326;28;20049;-59
2024/03/08 07:14:21;;;;;;;15.73;7.18;;;;;;;1.80;57.04;99806.94;10438954;28;20049;-59
2024/03/08 07:19:23;;;;;;;13.20;6.38;;;;;;;1.86;57.00;99802.47;10437979;28;20053;-59
2024/03/08 07:24:51;;;;;;;13.10;6.97;;;;;;;1.86;57.46;99799.03;10438038;28;20045;-60
2024/03/08 07:29:55;;;;;;;14.52;6.65;;;;;;;2.05;56.93;99789.91;10433111;28;20045;-59
2024/03/08 07:35:02;;;;;;;16.30;6.82;;;;;;;2.19;56.75;99791.19;10434356;28;20438;-59
2024/03/08 07:40:04;;;;;;;14.63;7.07;;;;;;;2.21;56.80;99786.03;10435434;28;20119;-59
2024/03/08 07:45:08;;;;;;;17.40;6.65;;;;;;;2.41;56.46;99788.03;10434118;28;20049;-59
2024/03/08 07:50:10;;;;;;;14.95;6.75;;;;;;;2.46;56.18;99775.84;10433823;28;20099;-59
2024/03/08 07:55:13;;;;;;;14.27;6.30;;;;;;;2.87;56.04;99767.66;10433550;28;20056;-59
2024/03/08 08:00:18;;;;;;;14.27;7.13;;;;;;;3.39;55.47;99766.84;10433119;28;20048;-59
2024/03/08 08:05:20;;;;;;;17.58;7.07;;;;;;;3.81;54.51;99755.03;10431897;28;20041;-59
2024/03/08 08:10:22;;;;;;;16.65;8.00;;;;;;;3.91;53.49;99760.75;10431381;28;20118;-59
2024/03/08 08:15:24;;;;;;;14.68;6.65;;;;;;;4.45;53.36;99741.50;10429998;28;20053;-59
2024/03/08 08:20:28;;;;;;;14.40;6.45;;;;;;;4.79;52.30;99743.63;10433001;28;20056;-59
2024/03/08 08:25:31;;;;;;;13.35;6.22;;;;;;;5.17;52.20;99724.78;10430848;28;20049;-59
2024/03/08 08:30:33;;;;;;;15.10;6.40;;;;;;;5.15;51.57;99720.53;10432007;28;20051;-59
2024/03/08 08:35:37;;;;;;;12.88;7.15;;;;;;;5.18;51.60;99702.28;10430042;28;20626;-59
2024/03/08 08:40:39;;;;;;;14.77;6.18;;;;;;;5.55;50.46;99702.44;10430241;28;20065;-59
2024/03/08 08:45:42;;;;;;;13.02;6.05;;;;;;;5.67;50.89;99691.53;10430569;28;20468;-59
2024/03/08 08:50:44;;;;;;;13.88;6.47;;;;;;;5.90;49.76;99682.72;10431180;28;20076;-60
2024/03/08 08:55:47;;;;;;;15.55;6.85;;;;;;;6.35;50.35;99676.31;10462054;28;20437;-60
2024/03/08 09:00:50;;;;;;;12.90;6.70;;;;;;;6.64;49.75;99674.09;10430602;28;20045;-60
2024/03/08 09:05:52;;;;;;;13.63;6.68;;;;;;;7.11;49.14;99667.41;10430435;28;20083;-60
2024/03/08 09:10:54;;;;;;;13.85;6.53;;;;;;;7.14;48.97;99655.09;10428487;28;20164;-60
2024/03/08 09:15:56;;;;;;;12.93;5.57;;;;;;;7.28;48.82;99656.19;10428645;28;20045;-60
2024/03/08 09:20:59;;;;;;;12.25;5.82;;;;;;;7.56;48.01;99644.28;10430463;28;20126;-60
2024/03/08 09:26:02;;;;;;;14.23;5.95;;;;;;;7.32;47.76;99632.53;10427787;28;20198;-49
2024/03/08 09:31:11;;;;;;;10.13;5.22;;;;;;;7.88;48.17;99632.16;10429537;28;20361;-50
2024/03/08 09:36:16;;;;;;;12.27;5.80;;;;;;;7.93;46.25;99619.75;10429608;28;20294;-52
2024/03/08 09:41:18;;;;;;;8.80;4.70;;;;;;;7.73;46.31;99617.38;10430100;28;20144;-50
2024/03/08 09:46:22;;;;;;;8.25;4.35;;;;;;;7.76;45.85;99610.22;10427493;28;20048;-51
2024/03/08 09:51:28;;;;;;;9.18;4.70;;;;;;;7.64;45.65;99608.28;10411256;28;20049;-51
2024/03/08 09:56:33;;;;;;;9.35;4.85;;;;;;;8.12;45.12;99602.22;10424558;28;20134;-53
2024/03/08 10:01:35;;;;;;;12.82;6.30;;;;;;;8.04;44.12;99584.38;10451724;28;20128;-51
2024/03/08 10:06:38;;;;;;;10.48;5.20;;;;;;;8.13;44.96;99579.63;10428282;28;20766;-52
2024/03/08 10:11:40;;;;;;;11.20;5.63;;;;;;;7.62;44.10;99578.91;10428096;28;20083;-52
2024/03/08 10:16:42;;;;;;;9.18;4.97;;;;;;;8.12;44.49;99570.13;10429731;28;20400;-49
2024/03/08 10:21:53;;;;;;;10.80;5.32;;;;;;;8.38;44.76;99570.38;10431628;28;20115;-50
2024/03/08 10:27:01;;;;;;;8.00;4.68;;;;;;;8.46;44.15;99556.91;10428394;28;20416;-50
2024/03/08 10:32:05;;;;;;;12.77;4.93;;;;;;;8.41;44.73;99549.34;10436006;28;20037;-49
2024/03/08 10:37:17;;;;;;;9.73;5.20;;;;;;;8.13;44.12;99546.59;10436516;28;20596;-48
2024/03/08 10:42:26;;;;;;;10.20;5.35;;;;;;;8.01;43.27;99545.50;10433785;28;20349;-53
2024/03/08 10:47:30;;;;;;;11.85;5.53;;;;;;;7.99;44.11;99542.16;10431186;28;20404;-50
2024/03/08 10:52:34;;;;;;;10.55;4.97;;;;;;;8.47;43.70;99522.91;10429797;28;20044;-50
2024/03/08 10:57:38;;;;;;;8.68;5.10;;;;;;;8.48;44.36;99519.41;10428209;28;20065;-50
2024/03/08 11:02:44;;;;;;;10.18;4.93;;;;;;;8.45;43.85;99506.53;10429168;28;20309;-49
2024/03/08 11:07:47;;;;;;;9.45;4.63;;;;;;;8.57;43.74;99491.94;10464813;28;20048;-53
2024/03/08 11:12:50;;;;;;;9.85;4.63;;;;;;;8.76;44.39;99475.16;10431269;28;20498;-51
2024/03/08 11:17:55;;;;;;;9.30;4.97;;;;;;;8.70;43.82;99477.28;10428109;28;20489;-50
2024/03/08 11:23:04;;;;;;;10.15;4.50;;;;;;;8.88;42.06;99470.13;10433527;28;20099;-49
2024/03/08 11:28:17;;;;;;;10.80;4.68;;;;;;;8.75;42.62;99475.25;10432058;28;20053;-49
2024/03/08 11:33:21;;;;;;;9.57;4.60;;;;;;;8.56;44.06;99449.44;10433664;28;20080;-52
2024/03/08 11:38:23;;;;;;;10.27;4.47;;;;;;;8.76;43.32;99456.91;10433810;28;20489;-49
2024/03/08 11:43:25;;;;;;;8.23;4.65;;;;;;;8.66;43.40;99457.53;10432898;28;20079;-49
2024/03/08 11:48:27;;;;;;;8.10;4.22;;;;;;;8.78;43.71;99442.00;10434344;28;20295;-50
2024/03/08 11:53:29;;;;;;;9.35;5.00;;;;;;;9.04;43.30;99437.81;10432897;28;20044;-51
2024/03/08 11:58:32;;;;;;;7.88;4.35;;;;;;;9.05;42.08;99421.25;10432985;28;20040;-51
2024/03/08 12:03:34;;;;;;;8.27;4.80;;;;;;;9.02;42.62;99425.78;10430826;28;20061;-53
2024/03/08 12:08:36;;;;;;;9.85;4.85;;;;;;;9.04;42.01;99416.94;10424130;28;20126;-50
2024/03/08 12:13:40;;;;;;;10.10;4.40;;;;;;;8.77;40.71;99411.63;10421001;28;20052;-49
2024/03/08 12:18:42;;;;;;;9.02;4.32;;;;;;;9.01;40.94;99414.53;10423632;28;20056;-51
2024/03/08 12:23:45;;;;;;;7.90;4.18;;;;;;;9.21;41.32;99406.31;10424819;28;20650;-52
2024/03/08 12:28:47;;;;;;;8.38;3.92;;;;;;;9.16;40.75;99392.69;10424422;28;20877;-50
2024/03/08 12:33:58;;;;;;;8.63;3.97;;;;;;;9.41;40.92;99387.63;10427233;28;20071;-50
2024/03/08 12:39:03;;;;;;;8.10;4.07;;;;;;;9.51;40.65;99380.88;10424478;28;20045;-49
2024/03/08 12:44:07;;;;;;;10.02;4.25;;;;;;;9.66;41.79;99373.88;10422968;28;20052;-50
2024/03/08 12:49:10;;;;;;;8.27;4.15;;;;;;;9.84;41.76;99362.22;10425085;28;20408;-49
2024/03/08 12:54:12;;;;;;;11.05;4.60;;;;;;;10.04;40.72;99350.44;10429860;28;20064;-50
2024/03/08 12:59:14;;;;;;;7.90;4.45;;;;;;;9.84;40.67;99343.94;10429792;28;20418;-51
2024/03/08 13:04:18;;;;;;;8.88;4.18;;;;;;;9.97;40.45;99330.91;10429821;28;20175;-51
2024/03/08 13:09:22;;;;;;;7.88;4.50;;;;;;;10.22;40.51;99325.69;10429621;28;20079;-49
2024/03/08 13:14:24;;;;;;;8.32;3.80;;;;;;;10.27;40.62;99321.00;10429507;28;20588;-54
2024/03/08 13:19:28;;;;;;;8.77;4.68;;;;;;;10.12;40.39;99316.81;10428409;28;20052;-54
2024/03/08 13:24:30;;;;;;;9.48;4.60;;;;;;;10.14;39.96;99299.25;10427338;28;20139;-52
2024/03/08 13:29:33;;;;;;;8.35;4.47;;;;;;;10.43;40.53;99306.78;10427094;28;20047;-51
2024/03/08 13:34:35;;;;;;;7.75;4.00;;;;;;;10.32;39.42;99290.16;10428112;28;20052;-52
2024/03/08 13:39:41;;;;;;;8.43;4.20;;;;;;;10.64;40.04;99280.94;10425120;28;20064;-51
2024/03/08 13:44:46;;;;;;;10.32;4.68;;;;;;;10.68;39.76;99276.31;10425966;28;20151;-51
2024/03/08 13:49:50;;;;;;;8.38;4.25;;;;;;;10.58;40.27;99268.28;10425504;28;20037;-53
2024/03/08 13:54:52;;;;;;;7.88;4.05;;;;;;;10.84;40.03;99261.19;10425736;28;20052;-51
2024/03/08 13:59:55;;;;;;;10.38;4.00;;;;;;;10.77;39.56;99239.88;10425415;28;20695;-52
2024/03/08 14:04:57;;;;;;;9.90;4.60;;;;;;;10.75;40.00;99241.75;10426769;28;20040;-55
2024/03/08 14:09:59;;;;;;;9.68;5.07;;;;;;;10.66;39.08;99236.34;10427453;28;20525;-51
2024/03/08 14:15:03;;;;;;;7.50;4.00;;;;;;;10.98;39.61;99220.03;10426599;28;20152;-54
2024/03/08 14:20:06;;;;;;;8.32;3.90;;;;;;;10.80;39.40;99221.34;10426559;28;20545;-52
2024/03/08 14:25:16;;;;;;;8.52;3.95;;;;;;;10.67;39.57;99199.63;10424559;28;20068;-53
2024/03/08 14:30:34;;;;;;;8.73;4.55;;;;;;;10.87;40.13;99195.56;10427709;28;20148;-52
2024/03/08 14:35:40;;;;;;;8.40;4.00;;;;;;;10.76;39.53;99185.91;10427355;28;20454;-53
2024/03/08 14:40:46;;;;;;;9.45;4.35;;;;;;;10.59;39.32;99178.44;10428057;28;20107;-55
2024/03/08 14:45:49;;;;;;;10.93;4.60;;;;;;;10.61;38.89;99173.06;10427201;28;20049;-54
2024/03/08 14:50:51;;;;;;;9.73;4.38;;;;;;;10.54;39.37;99170.09;10419856;28;20045;-51
2024/03/08 14:55:53;;;;;;;9.20;4.60;;;;;;;10.69;39.71;99168.97;10424503;28;20536;-51
2024/03/08 15:01:00;;;;;;;7.95;4.82;;;;;;;10.77;40.38;99161.41;10423642;28;20051;-55
2024/03/08 15:06:08;;;;;;;8.23;4.07;;;;;;;10.68;39.82;99148.16;10420306;28;20171;-53
2024/03/08 15:11:10;;;;;;;9.00;4.43;;;;;;;10.58;40.45;99153.25;10424572;28;20060;-55
2024/03/08 15:16:16;;;;;;;25.08;5.50;;;;;;;10.73;40.43;99143.44;10427374;28;20448;-52
2024/03/08 15:21:19;;;;;;;11.50;4.50;;;;;;;10.52;39.89;99146.66;10432589;28;20187;-53
2024/03/08 15:26:21;;;;;;;9.02;4.63;;;;;;;10.43;40.83;99138.63;10432187;28;20052;-54
2024/03/08 15:31:24;;;;;;;9.35;5.13;;;;;;;10.49;41.09;99136.44;10433176;28;20463;-49
2024/03/08 15:36:33;;;;;;;11.13;5.00;;;;;;;10.53;41.21;99123.97;10431719;28;20139;-51
2024/03/08 15:41:35;;;;;;;10.52;5.40;;;;;;;10.45;40.98;99132.38;10432474;28;20096;-49
2024/03/08 15:46:37;;;;;;;11.00;5.18;;;;;;;10.29;40.38;99133.56;10433004;28;20048;-53
2024/03/08 15:51:41;;;;;;;11.32;4.97;;;;;;;10.24;41.50;99133.88;10432130;28;20045;-52
2024/03/08 15:56:44;;;;;;;13.23;6.70;;;;;;;10.05;41.52;99130.06;10431509;28;20047;-52
2024/03/08 16:01:50;;;;;;;8.70;4.40;;;;;;;9.99;41.25;99127.91;10427456;28;20489;-51
2024/03/08 16:06:54;;;;;;;9.70;4.80;;;;;;;10.20;41.75;99126.38;10430080;28;20041;-51
2024/03/08 16:11:59;;;;;;;11.40;5.28;;;;;;;9.91;40.49;99131.03;10429603;28;20060;-53
2024/03/08 16:17:02;;;;;;;10.05;5.25;;;;;;;9.96;41.87;99115.88;10429043;28;20136;-50
2024/03/08 16:22:04;;;;;;;9.52;4.97;;;;;;;9.90;42.15;99111.09;10429009;28;20052;-54
2024/03/08 16:27:06;;;;;;;10.20;4.97;;;;;;;9.84;42.53;99100.22;10430995;28;20049;-54
2024/03/08 16:32:08;;;;;;;10.52;5.72;;;;;;;9.66;42.17;99107.56;10426940;28;20130;-51
2024/03/08 16:37:11;;;;;;;12.10;5.68;;;;;;;9.54;42.65;99103.97;10430209;28;20095;-51
2024/03/08 16:42:16;;;;;;;10.23;4.65;;;;;;;9.35;42.74;99106.19;10427646;28;20139;-50
2024/03/08 16:47:18;;;;;;;10.98;5.32;;;;;;;9.29;43.45;99098.75;10429636;28;20124;-51
2024/03/08 16:52:22;;;;;;;10.93;4.63;;;;;;;9.20;43.33;99101.97;10431511;28;20753;-53
2024/03/08 16:57:25;;;;;;;9.98;5.20;;;;;;;9.04;43.45;99097.88;10427195;28;20493;-53
2024/03/08 17:02:27;;;;;;;11.20;5.10;;;;;;;8.89;43.27;99089.34;10430544;28;20060;-54
2024/03/08 17:07:31;;;;;;;10.60;4.68;;;;;;;8.80;43.61;99092.53;10429847;28;20045;-53
2024/03/08 17:12:34;;;;;;;12.57;4.88;;;;;;;8.67;43.68;99086.44;10430317;28;20508;-50
2024/03/08 17:17:37;;;;;;;11.75;4.80;;;;;;;8.44;43.75;99089.72;10429104;28;20569;-53
2024/03/08 17:22:40;;;;;;;9.05;4.20;;;;;;;8.36;44.27;99082.41;10428956;28;20044;-52
2024/03/08 17:27:44;;;;;;;10.60;5.35;;;;;;;8.21;44.64;99085.13;10428360;28;20158;-52
2024/03/08 17:32:49;;;;;;;10.13;4.43;;;;;;;8.13;44.45;99083.00;10426437;28;20202;-52
2024/03/08 17:37:57;;;;;;;8.32;4.72;;;;;;;8.16;44.47;99080.19;10428458;28;20493;-54
2024/03/08 17:43:00;;;;;;;10.23;5.25;;;;;;;8.14;44.47;99081.25;10427397;28;20466;-49
2024/03/08 17:48:12;;;;;;;8.00;4.22;;;;;;;8.16;44.55;99079.38;10428084;28;20236;-47
2024/03/08 17:53:15;;;;;;;10.38;5.05;;;;;;;7.97;44.24;99080.53;10428286;28;20484;-52
2024/03/08 17:58:18;;;;;;;11.98;5.00;;;;;;;7.85;44.61;99078.66;10429199;28;20041;-50
2024/03/08 18:03:27;;;;;;;11.23;5.35;;;;;;;7.75;44.80;99077.53;10426124;28;20053;-51
2024/03/08 18:08:30;;;;;;;9.88;4.85;;;;;;;7.66;45.05;99072.94;10426112;28;20071;-48
2024/03/08 18:13:32;;;;;;;9.50;4.97;;;;;;;7.56;45.19;99077.03;10427596;28;20084;-49
2024/03/08 18:18:34;;;;;;;12.98;5.20;;;;;;;7.51;45.27;99075.63;10427441;28;20103;-49
2024/03/08 18:23:37;;;;;;;11.98;5.18;;;;;;;7.33;45.58;99071.50;10429153;28;20033;-52
2024/03/08 18:28:41;;;;;;;8.48;4.72;;;;;;;7.08;46.24;99074.78;10464052;28;20132;-50
2024/03/08 18:33:45;;;;;;;11.77;5.65;;;;;;;6.92;46.75;99071.38;10427749;28;20325;-52
2024/03/08 18:38:48;;;;;;;9.45;5.72;;;;;;;6.75;47.04;99063.72;10431746;28;20033;-50
2024/03/08 18:43:51;;;;;;;8.20;4.50;;;;;;;6.66;47.23;99064.25;10431315;28;20045;-50
2024/03/08 18:48:53;;;;;;;11.65;5.35;;;;;;;6.57;47.56;99059.59;10431543;28;20037;-50
2024/03/08 18:53:55;;;;;;;10.20;5.15;;;;;;;6.57;47.48;99051.81;10437756;28;20048;-62
2024/03/08 18:58:57;;;;;;;9.68;5.00;;;;;;;6.50;47.43;99048.72;10433831;28;20047;-60
2024/03/08 19:03:59;;;;;;;10.95;5.80;;;;;;;6.48;47.62;99047.13;10433442;28;20059;-59
2024/03/08 19:09:04;;;;;;;14.50;4.97;;;;;;;6.43;47.84;99042.19;10424886;28;20088;-59
2024/03/08 19:14:06;;;;;;;11.77;5.72;;;;;;;6.38;48.29;99040.78;10430313;28;20081;-59
2024/03/08 19:19:13;;;;;;;8.48;4.80;;;;;;;6.23;48.40;99035.50;10428098;28;20394;-59
2024/03/08 19:24:16;;;;;;;13.65;6.00;;;;;;;6.20;48.64;99040.88;10428758;28;20293;-59
2024/03/08 19:29:20;;;;;;;11.93;5.90;;;;;;;6.13;49.03;99038.69;10425460;28;20440;-60
2024/03/08 19:34:25;;;;;;;9.93;5.60;;;;;;;6.00;49.34;99035.13;10430524;28;20042;-60
2024/03/08 19:39:30;;;;;;;17.55;6.43;;;;;;;5.90;49.63;99037.38;10427405;28;20490;-60
2024/03/08 19:44:33;;;;;;;11.75;6.38;;;;;;;5.83;49.82;99046.41;10425803;28;20794;-59
2024/03/08 19:49:35;;;;;;;11.25;6.30;;;;;;;5.80;50.25;99043.97;10429542;28;20100;-60
2024/03/08 19:54:38;;;;;;;12.82;5.93;;;;;;;5.72;50.34;99043.56;10424327;28;20191;-60
2024/03/08 19:59:46;;;;;;;11.43;5.80;;;;;;;5.63;50.57;99043.22;10423478;28;20053;-59
2024/03/08 20:04:50;;;;;;;10.48;5.07;;;;;;;5.61;50.81;99043.31;10426594;28;20056;-60
2024/03/08 20:09:52;;;;;;;11.65;5.25;;;;;;;5.59;50.62;99029.59;10425320;28;20045;-60
2024/03/08 20:14:56;;;;;;;14.55;6.35;;;;;;;5.42;50.47;99033.09;10423504;28;20223;-60
2024/03/08 20:20:00;;;;;;;14.15;7.20;;;;;;;5.33;50.72;99030.16;10428241;28;20047;-59
2024/03/08 20:25:03;;;;;;;12.85;6.05;;;;;;;5.25;50.93;99034.88;10431816;28;20037;-59
2024/03/08 20:30:12;;;;;;;12.82;5.85;;;;;;;5.26;51.18;99031.38;10431085;28;20049;-59
2024/03/08 20:35:14;;;;;;;12.95;6.13;;;;;;;5.22;51.51;99022.94;10432030;28;20293;-60
2024/03/08 20:40:23;;;;;;;12.18;5.65;;;;;;;5.17;51.39;99013.69;10422784;28;20057;-59
2024/03/08 20:45:26;;;;;;;10.18;4.50;;;;;;;5.08;51.06;99003.81;10422529;28;20067;-59
2024/03/08 20:50:28;;;;;;;11.35;5.75;;;;;;;4.94;51.37;99006.28;10426192;28;20539;-60
2024/03/08 20:55:30;;;;;;;11.73;6.13;;;;;;;4.85;51.50;99006.75;10427233;28;20060;-59
2024/03/08 21:05:42;;;;;;;13.50;6.38;;;;;;;4.62;52.00;99006.16;10430783;28;20067;-60
2024/03/08 21:10:47;;;;;;;8.77;5.00;;;;;;;4.51;52.29;99008.47;10429943;28;20095;-59
2024/03/08 21:15:52;;;;;;;11.07;6.07;;;;;;;4.36;52.53;99008.38;10414460;28;20535;-59
2024/03/08 21:20:55;;;;;;;14.52;5.88;;;;;;;4.32;53.09;98997.34;10422324;28;20182;-59
2024/03/08 21:25:58;;;;;;;10.18;5.32;;;;;;;4.28;53.69;98998.41;10420549;28;20053;-59
2024/03/08 21:31:00;;;;;;;19.00;7.43;;;;;;;4.17;53.44;98985.13;10402722;28;20040;-59
2024/03/08 21:36:03;;;;;;;16.65;6.50;;;;;;;4.04;53.49;98988.41;10422586;28;20417;-59
2024/03/08 21:41:08;;;;;;;22.85;6.70;;;;;;;4.02;54.17;98995.41;10420382;28;20049;-59
2024/03/08 21:46:13;;;;;;;13.57;6.78;;;;;;;3.96;53.96;99000.88;10423670;28;20049;-59
2024/03/08 21:51:17;;;;;;;10.98;5.53;;;;;;;3.93;54.66;98999.25;10423406;28;20587;-59
2024/03/08 21:56:19;;;;;;;16.15;6.88;;;;;;;3.96;54.38;99004.31;10424108;28;20445;-60
2024/03/08 22:01:21;;;;;;;12.02;6.10;;;;;;;3.93;54.66;99016.53;10441769;28;20072;-59
2024/03/08 22:06:24;;;;;;;14.93;6.25;;;;;;;3.86;54.64;99032.34;10428940;28;20140;-60
2024/03/08 22:11:27;;;;;;;11.93;5.95;;;;;;;3.85;54.59;99029.81;10423998;28;20444;-59
2024/03/08 22:16:33;;;;;;;12.50;5.88;;;;;;;3.96;54.67;99019.81;10420617;28;20413;-59
2024/03/08 22:21:35;;;;;;;10.23;4.45;;;;;;;4.02;53.99;99013.50;10453704;28;20288;-59
2024/03/08 22:26:38;;;;;;;10.98;5.53;;;;;;;3.95;54.11;99012.97;10433483;28;20182;-59
2024/03/08 22:31:40;;;;;;;9.23;5.55;;;;;;;3.89;54.34;99002.91;10440029;28;20453;-59
2024/03/08 22:36:43;;;;;;;10.45;5.57;;;;;;;3.88;54.52;99005.56;10439667;28;20049;-59
2024/03/08 22:41:47;;;;;;;10.88;5.43;;;;;;;3.84;54.88;99010.88;10440671;28;20122;-59
2024/03/08 22:46:50;;;;;;;12.38;6.20;;;;;;;3.83;54.77;99008.34;10444025;28;20593;-59
2024/03/08 22:51:53;;;;;;;14.10;7.15;;;;;;;3.84;54.64;99004.88;10442635;28;20060;-59
2024/03/08 22:57:08;;;;;;;14.35;6.82;;;;;;;3.73;54.63;98999.34;10443957;28;20103;-59
2024/03/08 23:02:11;;;;;;;10.60;5.20;;;;;;;3.59;54.83;99009.47;10474807;28;20048;-59
2024/03/08 23:07:14;;;;;;;13.32;6.15;;;;;;;3.57;55.07;99001.81;10443511;28;20153;-60
2024/03/08 23:12:18;;;;;;;12.25;5.75;;;;;;;3.54;55.00;99001.94;10443554;28;20418;-59
2024/03/08 23:17:23;;;;;;;12.57;6.25;;;;;;;3.52;55.33;99001.16;10444327;28;20084;-59
2024/03/08 23:22:26;;;;;;;11.65;5.78;;;;;;;3.45;55.01;98991.19;10444178;28;20131;-58
2024/03/08 23:27:29;;;;;;;13.20;5.15;;;;;;;3.18;55.24;98982.94;10443645;28;20059;-59
2024/03/08 23:32:31;;;;;;;11.00;5.20;;;;;;;3.04;55.06;98983.56;10440491;28;20057;-58
2024/03/08 23:37:33;;;;;;;27.23;7.32;;;;;;;2.98;55.79;98981.25;10470394;28;20187;-57